Time;durP1;ratioP1;P1;durP2;ratioP2;P2;SDS_P1;SDS_P2;PMS_P1;PMS_P2;Temp;Humidity;BMP_temperature;BMP_pressure;BME280_temperature;BME280_humidity;BME280_pressure;Samples;Min_cycle;Max_cycle;Signal;HPM_P1;HPM_P2
2021/07/30 00:01:51;;;;;;;14.27;5.25;;;;;;;14.56;70.55;101117.47;5051715;28;20033;-64
2021/07/30 00:04:16;;;;;;;11.75;5.28;;;;;;;14.55;70.48;101122.91;5050861;28;20040;-64
2021/07/30 00:06:41;;;;;;;18.50;5.18;;;;;;;14.54;70.78;101122.03;5051214;28;20035;-64
2021/07/30 00:09:07;;;;;;;16.10;4.85;;;;;;;14.54;70.66;101121.16;5051866;28;20247;-64
2021/07/30 00:11:32;;;;;;;13.00;4.95;;;;;;;14.55;70.69;101121.09;5051395;28;20035;-64
2021/07/30 00:13:57;;;;;;;11.05;4.90;;;;;;;14.58;70.36;101115.59;5051840;28;20053;-63
2021/07/30 00:16:23;;;;;;;11.93;5.00;;;;;;;14.59;70.18;101113.78;5050937;28;20033;-64
2021/07/30 00:18:48;;;;;;;10.30;4.82;;;;;;;14.59;70.17;101119.09;5051583;28;20475;-64
2021/07/30 00:21:13;;;;;;;13.68;5.55;;;;;;;14.60;70.21;101112.81;5051480;28;20041;-63
2021/07/30 00:23:39;;;;;;;10.77;4.45;;;;;;;14.61;70.05;101108.38;5051164;28;20029;-63
2021/07/30 00:26:04;;;;;;;12.93;4.50;;;;;;;14.58;70.46;101114.75;5050717;28;20052;-64
2021/07/30 00:28:29;;;;;;;9.55;4.60;;;;;;;14.55;70.57;101113.13;5050883;28;20098;-64
2021/07/30 00:30:55;;;;;;;11.18;4.20;;;;;;;14.57;70.42;101107.69;5051801;28;20119;-64
2021/07/30 00:33:20;;;;;;;13.95;4.97;;;;;;;14.56;70.48;101100.63;5051307;28;20051;-64
2021/07/30 00:35:45;;;;;;;17.08;4.50;;;;;;;14.55;70.57;101104.25;5051125;28;20028;-64
2021/07/30 00:38:11;;;;;;;11.90;4.90;;;;;;;14.53;70.71;101107.00;5051649;28;20123;-64
2021/07/30 00:40:36;;;;;;;11.23;5.40;;;;;;;14.54;70.83;101105.19;5051857;28;20336;-64
2021/07/30 00:43:04;;;;;;;10.25;4.72;;;;;;;14.57;70.50;101099.69;5051157;28;20089;-64
2021/07/30 00:45:30;;;;;;;12.60;4.80;;;;;;;14.59;70.61;101108.44;5051371;28;20086;-63
2021/07/30 00:47:55;;;;;;;14.25;4.60;;;;;;;14.56;70.63;101103.31;5051362;28;20467;-64
2021/07/30 00:50:21;;;;;;;11.25;4.30;;;;;;;14.52;70.64;101099.94;5050985;28;20362;-64
2021/07/30 00:52:48;;;;;;;9.80;4.10;;;;;;;14.49;71.08;101102.81;5050410;28;20127;-64
2021/07/30 00:55:14;;;;;;;10.68;5.13;;;;;;;14.43;71.47;101093.34;5050809;28;20455;-65
2021/07/30 00:57:40;;;;;;;10.93;4.93;;;;;;;14.40;71.65;101090.00;5050606;28;20037;-64
2021/07/30 01:00:06;;;;;;;12.82;4.88;;;;;;;14.35;71.87;101089.41;5051147;28;20036;-64
2021/07/30 01:02:32;;;;;;;15.00;4.97;;;;;;;14.31;72.33;101088.72;5050630;28;20040;-64
2021/07/30 01:04:58;;;;;;;13.18;4.50;;;;;;;14.32;72.22;101100.22;5051063;28;20090;-63
2021/07/30 01:07:23;;;;;;;11.43;4.80;;;;;;;14.30;72.32;101097.66;5050961;28;20075;-64
2021/07/30 01:09:48;;;;;;;13.48;4.88;;;;;;;14.29;72.43;101095.09;5050973;28;20025;-64
2021/07/30 01:12:14;;;;;;;14.60;4.65;;;;;;;14.25;72.47;101097.91;5051418;28;20378;-64
2021/07/30 01:14:39;;;;;;;12.10;4.82;;;;;;;14.23;72.56;101098.94;5050615;28;20139;-64
2021/07/30 01:17:04;;;;;;;12.70;4.80;;;;;;;14.20;72.74;101102.63;5050252;28;20036;-63
2021/07/30 01:19:30;;;;;;;12.32;5.00;;;;;;;14.15;73.30;101095.84;5050481;28;20103;-64
2021/07/30 01:21:56;;;;;;;10.32;4.53;;;;;;;14.11;73.51;101092.50;5050074;28;20131;-64
2021/07/30 01:24:23;;;;;;;12.77;5.28;;;;;;;14.06;73.57;101095.41;5050569;28;20458;-64
2021/07/30 01:26:49;;;;;;;13.52;4.85;;;;;;;14.04;73.95;101097.31;5050388;28;20412;-64
2021/07/30 01:29:14;;;;;;;12.75;5.13;;;;;;;14.02;74.01;101107.19;5049812;28;20028;-64
2021/07/30 01:31:40;;;;;;;9.20;4.60;;;;;;;14.03;74.27;101087.59;5050233;28;20371;-64
2021/07/30 01:34:05;;;;;;;15.27;5.43;;;;;;;14.03;74.74;101092.09;5050234;28;20021;-64
2021/07/30 01:36:31;;;;;;;11.85;4.68;;;;;;;14.05;74.23;101088.38;5049792;28;20412;-63
2021/07/30 01:38:56;;;;;;;13.60;4.50;;;;;;;14.05;74.25;101090.16;5049934;28;20112;-64
2021/07/30 01:41:21;;;;;;;13.30;4.43;;;;;;;14.06;74.53;101094.56;5051161;28;20104;-64
2021/07/30 01:43:47;;;;;;;14.52;5.78;;;;;;;14.05;74.39;101095.50;5050451;28;20056;-64
2021/07/30 01:46:12;;;;;;;11.77;4.65;;;;;;;14.06;74.55;101091.91;5048841;28;20017;-64
2021/07/30 01:48:37;;;;;;;11.85;4.88;;;;;;;14.04;74.69;101092.00;5050358;28;20040;-63
2021/07/30 01:51:04;;;;;;;13.70;4.88;;;;;;;14.04;74.78;101094.66;5050945;28;20448;-64
2021/07/30 01:53:30;;;;;;;13.35;4.97;;;;;;;14.05;74.82;101085.72;5049512;28;20128;-63
2021/07/30 01:55:55;;;;;;;12.70;4.45;;;;;;;14.03;74.83;101086.75;5049343;28;20025;-64
2021/07/30 01:58:21;;;;;;;11.65;4.55;;;;;;;14.00;75.01;101098.44;5049617;28;20036;-64
2021/07/30 02:00:47;;;;;;;10.65;4.20;;;;;;;13.98;75.30;101086.13;5048561;28;20120;-64
2021/07/30 02:03:12;;;;;;;14.50;4.70;;;;;;;13.96;75.47;101088.88;5049987;28;20036;-64
2021/07/30 02:05:38;;;;;;;11.43;4.70;;;;;;;13.92;75.59;101088.19;5049424;28;20025;-64
2021/07/30 02:08:05;;;;;;;13.23;4.60;;;;;;;13.89;75.80;101082.19;5049021;28;20087;-63
2021/07/30 02:10:30;;;;;;;12.30;4.72;;;;;;;13.85;76.04;101077.94;5049467;28;20390;-64
2021/07/30 02:15:39;;;;;;;9.63;4.38;;;;;;;13.86;76.01;101069.91;5049476;28;20060;-64
2021/07/30 02:18:04;;;;;;;9.45;4.60;;;;;;;13.87;76.25;101076.91;5049354;28;20017;-63
2021/07/30 02:20:30;;;;;;;13.07;4.82;;;;;;;13.85;76.18;101062.84;5049509;28;20571;-64
2021/07/30 02:22:55;;;;;;;15.63;5.50;;;;;;;13.86;76.16;101072.56;5050098;28;20424;-64
2021/07/30 02:25:20;;;;;;;13.25;5.18;;;;;;;13.84;76.36;101071.78;5050477;28;20028;-64
2021/07/30 02:27:46;;;;;;;19.00;5.55;;;;;;;13.80;76.74;101064.03;5049652;28;20475;-63
2021/07/30 02:30:11;;;;;;;15.65;6.95;;;;;;;13.77;76.73;101071.25;5048959;28;20166;-64
2021/07/30 02:32:36;;;;;;;19.80;6.90;;;;;;;13.74;76.93;101059.91;5049469;28;20021;-64
2021/07/30 02:35:02;;;;;;;16.67;6.85;;;;;;;13.75;76.71;101058.97;5049584;28;20025;-63
2021/07/30 02:37:27;;;;;;;12.80;6.30;;;;;;;13.75;76.66;101057.16;5049539;28;20033;-64
2021/07/30 02:39:53;;;;;;;18.65;6.47;;;;;;;13.77;76.68;101062.41;5049320;28;20390;-63
2021/07/30 02:42:18;;;;;;;14.52;5.95;;;;;;;13.76;76.68;101053.56;5048803;28;20048;-63
2021/07/30 02:44:43;;;;;;;14.50;5.25;;;;;;;13.76;76.65;101061.56;5050153;28;20052;-62
2021/07/30 02:47:08;;;;;;;10.82;5.38;;;;;;;13.74;76.85;101051.94;5049311;28;20478;-63
2021/07/30 02:49:34;;;;;;;15.18;5.30;;;;;;;13.74;76.76;101046.63;5050080;28;20029;-63
2021/07/30 02:51:59;;;;;;;10.70;5.05;;;;;;;13.74;77.17;101052.78;5049275;28;20053;-63
2021/07/30 02:54:24;;;;;;;10.45;5.00;;;;;;;13.74;76.87;101051.94;5049885;28;20033;-63
2021/07/30 02:56:49;;;;;;;13.77;4.95;;;;;;;13.75;77.17;101051.84;5049451;28;20435;-63
2021/07/30 02:59:15;;;;;;;12.00;4.95;;;;;;;13.74;77.23;101051.94;5049326;28;20017;-63
2021/07/30 03:01:40;;;;;;;17.38;5.97;;;;;;;13.74;77.01;101052.78;5049241;28;20407;-62
2021/07/30 03:04:05;;;;;;;16.75;5.10;;;;;;;13.77;76.86;101039.31;5048823;28;20167;-62
2021/07/30 03:06:31;;;;;;;14.77;5.20;;;;;;;13.78;76.90;101042.84;5048624;28;20025;-62
2021/07/30 03:08:56;;;;;;;16.42;5.07;;;;;;;13.79;77.03;101038.38;5048713;28;20052;-62
2021/07/30 03:11:22;;;;;;;16.00;5.47;;;;;;;13.79;77.08;101041.06;5046471;28;20045;-62
2021/07/30 03:13:48;;;;;;;11.32;4.90;;;;;;;13.77;76.80;101035.78;5052250;28;20036;-62
2021/07/30 03:16:13;;;;;;;14.02;5.40;;;;;;;13.77;77.07;101039.31;5052466;28;20033;-62
2021/07/30 03:18:39;;;;;;;9.73;5.10;;;;;;;13.80;76.92;101034.75;5052210;28;20025;-63
2021/07/30 03:21:05;;;;;;;16.42;5.90;;;;;;;13.82;76.85;101027.56;5052496;28;20025;-63
2021/07/30 03:23:30;;;;;;;14.63;5.15;;;;;;;13.88;76.48;101029.88;5052178;28;20033;-62
2021/07/30 03:25:55;;;;;;;15.05;5.57;;;;;;;13.90;76.52;101028.84;5051114;28;20028;-63
2021/07/30 03:28:21;;;;;;;18.30;7.43;;;;;;;13.89;76.73;101018.28;5052283;28;20032;-63
2021/07/30 03:30:46;;;;;;;15.85;6.28;;;;;;;13.90;76.59;101020.88;5051895;28;20037;-62
2021/07/30 03:33:12;;;;;;;11.27;5.45;;;;;;;13.95;76.56;101022.41;5051529;28;20040;-63
2021/07/30 03:35:38;;;;;;;12.80;5.25;;;;;;;13.97;76.46;101017.88;5052147;28;20017;-62
2021/07/30 03:38:03;;;;;;;15.95;5.30;;;;;;;13.97;76.74;101024.03;5051883;28;20036;-62
2021/07/30 03:40:28;;;;;;;18.48;5.25;;;;;;;14.03;76.59;101026.34;5051247;28;20024;-62
2021/07/30 03:42:54;;;;;;;14.60;5.38;;;;;;;14.02;76.68;101035.28;5051166;28;20132;-62
2021/07/30 03:45:19;;;;;;;15.15;5.30;;;;;;;14.03;76.61;101020.19;5050786;28;20038;-62
2021/07/30 03:47:45;;;;;;;12.27;5.43;;;;;;;14.01;76.67;101022.91;5051705;28;20025;-62
2021/07/30 03:50:10;;;;;;;15.88;5.28;;;;;;;14.03;76.73;101028.19;5051175;28;20112;-62
2021/07/30 03:52:35;;;;;;;17.77;5.63;;;;;;;14.06;76.72;101028.00;5051349;28;20037;-63
2021/07/30 03:55:01;;;;;;;13.43;5.50;;;;;;;14.12;76.78;101026.75;5050747;28;20029;-63
2021/07/30 03:57:26;;;;;;;13.13;5.68;;;;;;;14.17;76.85;101030.03;5051244;28;20036;-63
2021/07/30 03:59:55;;;;;;;11.30;5.82;;;;;;;14.23;76.68;101027.03;5050671;28;20183;-63
2021/07/30 04:02:20;;;;;;;12.18;5.40;;;;;;;14.26;76.21;101030.38;5030984;28;20421;-62
2021/07/30 04:04:45;;;;;;;14.00;5.72;;;;;;;14.32;76.13;101034.50;5032987;28;20084;-62
2021/07/30 04:07:11;;;;;;;13.07;5.10;;;;;;;14.37;76.32;101026.22;5051982;28;20100;-63
2021/07/30 04:09:36;;;;;;;12.63;5.60;;;;;;;14.35;76.43;101028.13;5051535;28;20455;-63
2021/07/30 04:12:01;;;;;;;14.90;5.40;;;;;;;14.40;76.09;101018.06;5051176;28;20033;-62
2021/07/30 04:14:27;;;;;;;15.75;5.90;;;;;;;14.43;76.21;101023.22;5051613;28;20242;-63
2021/07/30 04:16:52;;;;;;;10.95;5.13;;;;;;;14.46;76.08;101008.84;5050615;28;20091;-63
2021/07/30 04:19:17;;;;;;;15.00;5.38;;;;;;;14.50;76.26;100999.72;5050265;28;20107;-63
2021/07/30 04:21:43;;;;;;;13.63;5.72;;;;;;;14.52;76.62;100998.69;5049675;28;20417;-63
2021/07/30 04:24:08;;;;;;;12.45;6.15;;;;;;;14.55;76.72;100995.84;5050025;28;20025;-65
2021/07/30 04:26:33;;;;;;;17.02;5.45;;;;;;;14.62;76.24;101001.69;5049474;28;20052;-63
2021/07/30 04:28:59;;;;;;;17.17;5.95;;;;;;;14.66;76.26;101005.06;5050002;28;20029;-63
2021/07/30 04:31:24;;;;;;;15.23;5.40;;;;;;;14.69;76.07;100992.41;5050204;28;20081;-63
2021/07/30 04:33:49;;;;;;;21.05;5.88;;;;;;;14.71;76.04;100998.47;5050442;28;20104;-64
2021/07/30 04:36:15;;;;;;;13.57;5.60;;;;;;;14.73;76.71;100998.38;5049959;28;20029;-63
2021/07/30 04:38:42;;;;;;;14.75;5.38;;;;;;;14.75;76.37;100999.16;5049964;28;20121;-63
2021/07/30 04:41:07;;;;;;;19.20;5.88;;;;;;;14.77;76.09;100994.63;5050339;28;20178;-64
2021/07/30 04:43:33;;;;;;;14.57;6.22;;;;;;;14.80;76.31;100994.41;5049857;28;20502;-63
2021/07/30 04:45:58;;;;;;;13.68;5.32;;;;;;;14.81;75.97;100982.81;5050366;28;20429;-63
2021/07/30 04:48:23;;;;;;;16.33;6.10;;;;;;;14.81;76.41;100979.25;5049744;28;20047;-64
2021/07/30 04:50:49;;;;;;;14.98;6.45;;;;;;;14.82;76.43;100981.88;5049873;28;20045;-63
2021/07/30 04:53:14;;;;;;;16.35;5.85;;;;;;;14.85;76.20;100972.81;5050443;28;20147;-64
2021/07/30 04:55:39;;;;;;;15.30;5.97;;;;;;;14.87;75.38;100976.22;5050459;28;20451;-64
2021/07/30 04:58:05;;;;;;;15.85;5.72;;;;;;;14.90;76.13;100978.72;5049600;28;20481;-64
2021/07/30 05:00:30;;;;;;;12.57;5.70;;;;;;;14.98;75.46;100980.94;5049632;28;20124;-64
2021/07/30 05:02:56;;;;;;;18.95;6.38;;;;;;;15.03;75.42;100984.16;5050622;28;20116;-64
2021/07/30 05:05:21;;;;;;;15.60;5.80;;;;;;;15.08;75.02;100974.06;5049828;28;20033;-63
2021/07/30 05:07:47;;;;;;;16.77;5.90;;;;;;;15.09;74.58;100975.78;5049478;28;20025;-64
2021/07/30 05:10:13;;;;;;;14.80;6.20;;;;;;;15.17;74.08;100980.66;5050238;28;20070;-63
2021/07/30 05:12:38;;;;;;;13.45;5.80;;;;;;;15.21;74.16;100979.50;5049952;28;20108;-64
2021/07/30 05:15:05;;;;;;;20.20;6.63;;;;;;;15.29;73.72;100989.69;5049280;28;20037;-63
2021/07/30 05:17:30;;;;;;;13.50;6.00;;;;;;;15.31;73.65;100975.31;5048992;28;20021;-64
2021/07/30 05:19:55;;;;;;;17.40;6.15;;;;;;;15.37;73.97;100976.72;5049839;28;20029;-62
2021/07/30 05:22:21;;;;;;;15.77;5.82;;;;;;;15.42;73.35;100971.09;5048961;28;20470;-64
2021/07/30 05:24:46;;;;;;;15.02;5.90;;;;;;;15.47;73.29;100971.66;5049509;28;20033;-63
2021/07/30 05:27:11;;;;;;;12.85;5.95;;;;;;;15.54;73.22;100968.50;5049799;28;20044;-63
2021/07/30 05:29:37;;;;;;;18.25;6.22;;;;;;;15.62;72.77;100973.34;5049130;28;20029;-64
2021/07/30 05:32:02;;;;;;;19.42;6.13;;;;;;;15.71;72.04;100966.56;5049213;28;20529;-63
2021/07/30 05:34:28;;;;;;;15.18;6.10;;;;;;;15.78;72.11;100964.34;5048999;28;20029;-64
2021/07/30 05:36:53;;;;;;;13.52;5.72;;;;;;;15.86;71.91;100954.94;5047894;28;20017;-64
2021/07/30 05:39:18;;;;;;;15.35;6.00;;;;;;;15.93;72.13;100955.38;5049777;28;20309;-63
2021/07/30 05:41:44;;;;;;;13.93;5.82;;;;;;;15.91;72.63;100964.44;5027051;28;20171;-63
2021/07/30 05:44:09;;;;;;;15.07;6.35;;;;;;;15.91;72.71;100965.31;5029909;28;20108;-63
2021/07/30 05:46:37;;;;;;;16.80;6.53;;;;;;;16.04;71.17;100968.03;5039112;28;20029;-62
2021/07/30 05:49:03;;;;;;;13.07;5.70;;;;;;;16.10;70.83;100958.75;5046415;28;20033;-65
2021/07/30 05:51:28;;;;;;;13.30;5.70;;;;;;;16.21;69.90;100958.91;5045129;28;20375;-63
2021/07/30 05:53:54;;;;;;;14.88;5.43;;;;;;;16.35;69.42;100952.63;5047182;28;20029;-63
2021/07/30 05:56:19;;;;;;;16.55;5.50;;;;;;;16.34;69.08;100953.59;5049003;28;20025;-64
2021/07/30 05:58:44;;;;;;;14.55;6.40;;;;;;;16.42;68.76;100955.75;5049426;28;20075;-63
2021/07/30 06:01:13;;;;;;;13.73;5.72;;;;;;;16.48;69.24;100956.19;5048518;28;20055;-64
2021/07/30 06:03:40;;;;;;;15.80;6.32;;;;;;;16.59;68.92;100958.13;5048090;28;20163;-65
2021/07/30 06:06:05;;;;;;;15.70;5.70;;;;;;;16.66;68.04;100950.53;5049312;28;20016;-63
2021/07/30 06:08:31;;;;;;;12.98;5.78;;;;;;;16.69;67.22;100945.00;5049298;28;20025;-63
2021/07/30 06:10:56;;;;;;;14.55;6.13;;;;;;;16.76;67.10;100945.41;5049117;28;20102;-63
2021/07/30 06:13:21;;;;;;;15.18;5.63;;;;;;;16.85;66.15;100948.31;5049121;28;20369;-64
2021/07/30 06:15:46;;;;;;;18.17;6.30;;;;;;;16.95;66.24;100958.41;5048478;28;20115;-63
2021/07/30 06:18:12;;;;;;;11.38;5.40;;;;;;;17.00;65.76;100950.91;5048910;28;20055;-65
2021/07/30 06:20:37;;;;;;;15.43;5.28;;;;;;;17.01;65.57;100947.28;5049134;28;20096;-63
2021/07/30 06:23:03;;;;;;;13.80;5.50;;;;;;;17.07;65.58;100946.81;5048583;28;20102;-63
2021/07/30 06:25:28;;;;;;;16.27;5.78;;;;;;;17.08;65.60;100945.00;5048430;28;20406;-62
2021/07/30 06:27:53;;;;;;;11.68;4.97;;;;;;;17.18;65.38;100936.22;5049503;28;20519;-63
2021/07/30 06:30:19;;;;;;;15.43;5.85;;;;;;;17.31;65.18;100938.88;5048074;28;20052;-63
2021/07/30 06:32:45;;;;;;;13.65;5.07;;;;;;;17.40;63.81;100932.00;5047775;28;20036;-62
2021/07/30 06:35:14;;;;;;;12.65;5.10;;;;;;;17.46;62.51;100920.00;5047027;28;20032;-62
2021/07/30 06:37:40;;;;;;;10.25;4.97;;;;;;;17.50;62.60;100922.31;5043860;28;20587;-63
2021/07/30 06:40:06;;;;;;;11.93;5.05;;;;;;;17.52;61.77;100923.09;5045101;28;20072;-65
2021/07/30 06:42:33;;;;;;;15.90;4.65;;;;;;;17.63;61.82;100916.09;5048051;28;20489;-64
2021/07/30 06:44:58;;;;;;;13.02;4.70;;;;;;;17.61;61.68;100926.91;5046795;28;20428;-62
2021/07/30 06:47:24;;;;;;;11.85;4.45;;;;;;;17.64;61.27;100917.81;5049277;28;20045;-63
2021/07/30 06:49:50;;;;;;;14.95;5.13;;;;;;;17.73;62.14;100922.47;5052394;28;20043;-62
2021/07/30 06:52:15;;;;;;;12.57;5.05;;;;;;;17.89;61.87;100922.22;5049744;28;20049;-64
2021/07/30 06:54:41;;;;;;;10.73;4.68;;;;;;;18.02;61.33;100906.94;5032505;28;20412;-63
2021/07/30 06:57:07;;;;;;;10.43;4.15;;;;;;;18.15;60.77;100911.38;5051044;28;20120;-63
2021/07/30 06:59:32;;;;;;;17.10;4.78;;;;;;;18.20;60.70;100906.53;5033174;28;20025;-63
2021/07/30 07:02:00;;;;;;;11.50;4.07;;;;;;;18.28;58.68;100916.66;5050237;28;20021;-63
2021/07/30 07:04:25;;;;;;;14.90;4.70;;;;;;;18.38;58.43;100920.34;5049697;28;20063;-64
2021/07/30 07:06:51;;;;;;;11.05;4.22;;;;;;;18.39;57.53;100908.66;5048339;28;20060;-63
2021/07/30 07:09:17;;;;;;;11.20;4.28;;;;;;;18.38;57.77;100912.31;5046661;28;20447;-63
2021/07/30 07:11:43;;;;;;;11.60;4.53;;;;;;;18.45;58.20;100913.53;5049764;28;20431;-63
2021/07/30 07:14:08;;;;;;;13.93;4.78;;;;;;;18.37;57.19;100899.84;5051451;28;20020;-65
2021/07/30 07:16:34;;;;;;;12.85;5.20;;;;;;;18.30;57.48;100901.28;5051441;28;20025;-64
2021/07/30 07:18:59;;;;;;;13.77;4.85;;;;;;;18.41;57.15;100895.97;5051414;28;20025;-62
2021/07/30 07:21:25;;;;;;;9.63;4.57;;;;;;;18.52;57.99;100897.84;5029415;28;20106;-62
2021/07/30 07:23:51;;;;;;;12.75;4.72;;;;;;;18.73;58.17;100897.13;5047516;28;20561;-63
2021/07/30 07:26:17;;;;;;;18.02;5.10;;;;;;;18.84;57.08;100886.41;5029723;28;20037;-62
2021/07/30 07:28:43;;;;;;;9.93;4.32;;;;;;;19.02;58.49;100885.97;5050926;28;20087;-64
2021/07/30 07:31:09;;;;;;;12.07;5.05;;;;;;;19.15;57.21;100876.78;5049182;28;20037;-65
2021/07/30 07:33:34;;;;;;;13.65;4.93;;;;;;;19.19;57.13;100863.97;5050073;28;20059;-64
2021/07/30 07:35:59;;;;;;;12.90;5.05;;;;;;;19.27;57.14;100871.38;5050953;28;20040;-64
2021/07/30 07:38:25;;;;;;;10.27;4.65;;;;;;;19.26;56.86;100869.69;5048979;28;20462;-62
2021/07/30 07:40:51;;;;;;;12.60;4.80;;;;;;;19.26;56.92;100880.41;5042077;28;20035;-65
2021/07/30 07:43:16;;;;;;;10.18;5.00;;;;;;;19.33;57.53;100865.53;5050648;28;20168;-63
2021/07/30 07:45:42;;;;;;;11.07;4.60;;;;;;;19.47;56.89;100859.88;5051472;28;20450;-66
2021/07/30 07:48:07;;;;;;;12.15;4.70;;;;;;;19.64;55.97;100863.00;5050732;28;20053;-65
2021/07/30 07:50:33;;;;;;;12.00;5.30;;;;;;;19.78;57.13;100853.78;5048962;28;20108;-63
2021/07/30 07:52:58;;;;;;;10.00;4.43;;;;;;;19.82;56.25;100849.88;5031313;28;20072;-63
2021/07/30 07:55:23;;;;;;;12.35;5.15;;;;;;;19.76;55.43;100848.56;5049816;28;20137;-64
2021/07/30 07:57:49;;;;;;;14.13;4.40;;;;;;;19.83;55.40;100848.06;5048682;28;20037;-63
2021/07/30 08:00:14;;;;;;;11.80;4.53;;;;;;;19.97;54.13;100851.31;5050189;28;20451;-62
2021/07/30 08:02:39;;;;;;;13.20;4.97;;;;;;;20.26;54.14;100836.34;5050040;28;20078;-64
2021/07/30 08:05:05;;;;;;;11.50;4.40;;;;;;;20.43;54.07;100851.88;5049827;28;20100;-64
2021/07/30 08:07:31;;;;;;;12.02;4.72;;;;;;;20.55;54.59;100836.53;5049648;28;20453;-63
2021/07/30 08:09:56;;;;;;;11.18;4.88;;;;;;;20.64;53.86;100840.25;5049611;28;20115;-63
2021/07/30 08:12:21;;;;;;;12.95;4.07;;;;;;;20.73;52.38;100861.00;5049499;28;20037;-64
2021/07/30 08:14:47;;;;;;;11.57;4.40;;;;;;;20.55;53.90;100844.59;5028490;28;20057;-64
2021/07/30 08:17:12;;;;;;;13.55;4.38;;;;;;;20.84;52.11;100834.97;5038862;28;20021;-64
2021/07/30 08:19:38;;;;;;;10.63;4.25;;;;;;;21.05;52.99;100842.97;5048761;28;20033;-65
2021/07/30 08:22:04;;;;;;;14.77;4.15;;;;;;;21.36;51.34;100830.28;5050747;28;20036;-65
2021/07/30 08:24:30;;;;;;;14.38;4.38;;;;;;;21.69;50.69;100830.06;5048777;28;20056;-65
2021/07/30 08:26:56;;;;;;;10.57;4.10;;;;;;;21.84;51.02;100825.09;5048882;28;20037;-62
2021/07/30 08:29:21;;;;;;;10.45;4.68;;;;;;;21.93;49.24;100821.53;5050382;28;20040;-63
2021/07/30 08:31:46;;;;;;;8.80;3.83;;;;;;;21.64;50.25;100826.94;5049766;28;20447;-64
2021/07/30 08:34:13;;;;;;;9.65;4.47;;;;;;;21.51;50.55;100821.78;5050801;28;20028;-63
2021/07/30 08:36:38;;;;;;;9.82;3.90;;;;;;;21.52;50.09;100820.81;5049656;28;20095;-64
2021/07/30 08:39:04;;;;;;;9.23;3.97;;;;;;;21.62;50.50;100827.06;5049728;28;20029;-63
2021/07/30 08:41:29;;;;;;;10.32;3.95;;;;;;;21.50;51.63;100818.25;5049245;28;20111;-63
2021/07/30 08:43:55;;;;;;;9.05;3.85;;;;;;;21.54;51.14;100821.53;5031488;28;20032;-63
2021/07/30 08:46:25;;;;;;;9.32;3.67;;;;;;;21.48;51.30;100811.31;5048540;28;20029;-64
2021/07/30 08:48:51;;;;;;;7.20;3.50;;;;;;;21.50;50.18;100812.03;5048982;28;20462;-63
2021/07/30 08:51:19;;;;;;;14.10;3.75;;;;;;;21.31;50.04;100810.16;5050233;28;20056;-65
2021/07/30 08:53:46;;;;;;;9.70;4.07;;;;;;;21.23;50.87;100802.78;5050830;28;20120;-66
2021/07/30 08:56:12;;;;;;;10.55;3.90;;;;;;;21.18;51.03;100802.34;5048352;28;20497;-65
2021/07/30 08:58:38;;;;;;;10.75;4.15;;;;;;;21.09;51.70;100794.09;5050523;28;20447;-66
2021/07/30 09:01:03;;;;;;;7.53;3.90;;;;;;;21.28;51.81;100789.75;5051638;28;20025;-64
2021/07/30 09:03:55;;;;;;;12.60;3.88;;;;;;;21.45;50.97;100796.28;5048322;28;20458;-64
2021/07/30 09:06:21;;;;;;;;;;;;;;;21.51;51.25;100784.06;5046125;28;20052;-63
2021/07/30 09:08:55;;;;;;;9.75;3.60;;;;;;;21.66;51.18;100788.06;5049208;28;19924;-62
2021/07/30 09:11:35;;;;;;;9.63;3.50;;;;;;;21.82;49.83;100784.81;5048256;28;20116;-65
2021/07/30 09:14:03;;;;;;;10.45;3.95;;;;;;;21.96;49.67;100778.13;5049406;28;20041;-65
2021/07/30 09:16:29;;;;;;;10.25;3.97;;;;;;;22.00;49.87;100773.28;5048685;28;20029;-65
2021/07/30 09:18:54;;;;;;;8.70;3.42;;;;;;;21.92;50.10;100772.16;5049766;28;20443;-64
2021/07/30 09:21:31;;;;;;;8.07;3.70;;;;;;;21.93;50.99;100781.09;5048861;28;20033;-63
2021/07/30 09:24:15;;;;;;;9.75;4.00;;;;;;;22.01;50.70;100780.34;5039834;28;20039;-62
2021/07/30 09:26:56;;;;;;;9.88;3.50;;;;;;;21.82;50.83;100774.03;5048123;28;20036;-65
2021/07/30 09:29:32;;;;;;;8.10;3.38;;;;;;;21.70;49.77;100780.56;5048416;28;20479;-66
2021/07/30 09:32:14;;;;;;;6.63;3.15;;;;;;;21.61;49.64;100782.25;5046512;28;20159;-63
2021/07/30 09:34:48;;;;;;;11.18;3.80;;;;;;;21.55;50.55;100766.69;5048976;28;20040;-69
2021/07/30 09:37:17;;;;;;;7.55;3.92;;;;;;;21.66;50.24;100762.97;5048474;28;20029;-67
2021/07/30 09:39:46;;;;;;;8.70;4.18;;;;;;;21.75;50.62;100762.09;5048193;28;20059;-66
2021/07/30 09:42:13;;;;;;;7.93;4.20;;;;;;;21.71;51.08;100761.53;5048696;28;20017;-66
2021/07/30 09:44:41;;;;;;;12.80;4.00;;;;;;;21.68;51.34;100764.53;5049147;28;20454;-66
2021/07/30 09:47:16;;;;;;;9.90;4.10;;;;;;;21.58;51.17;100764.53;5047937;28;20051;-67
2021/07/30 09:49:46;;;;;;;9.80;4.05;;;;;;;21.56;52.02;100762.97;5042768;28;20029;-66
2021/07/30 09:52:14;;;;;;;9.98;4.15;;;;;;;21.66;51.00;100760.28;5043988;28;20045;-66
2021/07/30 09:54:44;;;;;;;8.45;3.88;;;;;;;21.55;50.14;100764.00;5025628;28;20045;-66
2021/07/30 09:57:11;;;;;;;9.63;3.60;;;;;;;21.70;50.97;100749.09;5028426;28;20051;-67
2021/07/30 09:59:40;;;;;;;9.60;3.88;;;;;;;21.78;50.10;100742.97;5046600;28;20113;-65
2021/07/30 10:02:10;;;;;;;9.65;3.70;;;;;;;22.11;49.79;100735.38;5047005;28;20024;-66
2021/07/30 10:04:41;;;;;;;8.07;3.58;;;;;;;22.66;48.82;100739.13;5047629;28;20044;-66
2021/07/30 10:07:07;;;;;;;8.07;3.70;;;;;;;23.24;47.73;100735.25;5048788;28;20044;-66
2021/07/30 10:09:32;;;;;;;7.25;3.67;;;;;;;23.65;46.78;100746.41;5048041;28;20279;-66
2021/07/30 10:12:00;;;;;;;7.20;3.47;;;;;;;24.12;46.06;100738.97;5048215;28;20477;-66
2021/07/30 10:14:29;;;;;;;9.32;3.72;;;;;;;23.99;45.09;100731.28;5045458;28;20021;-65
2021/07/30 10:17:02;;;;;;;8.90;3.90;;;;;;;24.03;45.34;100729.97;5044991;28;20391;-67
2021/07/30 10:19:30;;;;;;;9.25;4.05;;;;;;;23.83;46.97;100732.00;5047452;28;20044;-65
2021/07/30 10:22:01;;;;;;;10.48;4.20;;;;;;;23.68;46.93;100735.28;5047258;28;20454;-65
2021/07/30 10:24:28;;;;;;;7.18;3.70;;;;;;;23.45;47.60;100724.09;5047710;28;20435;-65
2021/07/30 10:27:00;;;;;;;8.85;4.28;;;;;;;23.46;47.74;100715.00;5049468;28;20102;-66
2021/07/30 10:29:25;;;;;;;9.85;4.30;;;;;;;23.07;48.38;100724.25;5047491;28;20097;-65
2021/07/30 10:31:50;;;;;;;8.48;3.90;;;;;;;22.80;49.16;100722.44;5048007;28;20382;-64
2021/07/30 10:34:17;;;;;;;9.00;4.20;;;;;;;22.35;51.08;100715.09;5045598;28;20025;-66
2021/07/30 10:36:42;;;;;;;9.65;4.07;;;;;;;22.13;51.40;100711.78;5048637;28;20037;-66
2021/07/30 10:39:15;;;;;;;8.07;3.80;;;;;;;21.95;51.52;100718.97;5047965;28;20032;-66
2021/07/30 10:42:01;;;;;;;7.47;3.80;;;;;;;21.67;51.58;100708.94;5048430;28;20021;-66
2021/07/30 10:44:26;;;;;;;7.38;3.35;;;;;;;21.43;51.98;100718.31;5027637;28;20462;-63
2021/07/30 10:47:19;;;;;;;9.52;3.72;;;;;;;21.25;52.51;100725.38;5044566;28;20184;-66
2021/07/30 10:49:44;;;;;;;7.88;3.55;;;;;;;21.16;53.25;100716.28;5047491;28;20064;-67
2021/07/30 10:52:27;;;;;;;8.50;3.58;;;;;;;21.30;53.01;100717.72;5045340;28;20114;-67
2021/07/30 10:54:53;;;;;;;6.72;3.50;;;;;;;21.25;53.33;100720.00;5043880;28;20055;-65
2021/07/30 10:57:45;;;;;;;7.03;3.67;;;;;;;21.09;53.82;100715.19;5046158;28;20128;-66
2021/07/30 11:00:11;;;;;;;6.50;3.42;;;;;;;21.27;53.96;100712.63;5046042;28;20043;-66
2021/07/30 11:03:04;;;;;;;8.45;3.70;;;;;;;21.32;53.80;100714.88;5047653;28;20230;-67
2021/07/30 11:05:29;;;;;;;5.60;3.70;;;;;;;21.23;53.91;100714.75;5040909;28;20048;-66
2021/07/30 11:07:59;;;;;;;8.57;3.70;;;;;;;21.29;54.36;100716.00;5043465;28;20447;-66
2021/07/30 11:10:25;;;;;;;9.13;4.28;;;;;;;21.29;54.67;100713.31;5047204;28;20033;-66
2021/07/30 11:12:53;;;;;;;10.05;4.90;;;;;;;21.29;54.88;100699.84;5047652;28;20391;-67
2021/07/30 11:15:19;;;;;;;7.95;3.90;;;;;;;21.23;54.89;100709.38;5032529;28;20040;-64
2021/07/30 11:17:48;;;;;;;8.40;4.03;;;;;;;21.32;54.14;100709.50;5047032;28;20021;-65
2021/07/30 11:20:13;;;;;;;9.07;3.92;;;;;;;21.15;55.23;100702.97;5048795;28;20127;-66